createdAt,value
2022-12-12T00:01:55.389Z,101075.03
2022-12-12T00:06:56.986Z,101076.31
2022-12-12T00:11:58.596Z,101067.25
2022-12-12T00:17:00.208Z,101069.44
2022-12-12T00:22:01.794Z,101059.28
2022-12-12T00:27:03.797Z,101072.13
2022-12-12T00:32:05.627Z,101083.91
2022-12-12T00:37:07.193Z,101085.84
2022-12-12T00:42:09.273Z,101091.22
2022-12-12T00:47:10.884Z,101074.75
2022-12-12T00:52:12.412Z,101081.66
2022-12-12T00:57:13.939Z,101086.84
2022-12-12T01:02:15.446Z,101087.75
2022-12-12T01:07:17.028Z,101074.16
2022-12-12T01:12:18.595Z,101077.69
2022-12-12T01:17:20.132Z,101084.03
2022-12-12T01:22:23.361Z,101085.84
2022-12-12T01:27:24.902Z,101103.22
2022-12-12T01:32:26.399Z,101112.31
2022-12-12T01:37:27.922Z,101115.69
2022-12-12T01:42:29.684Z,101119.78
2022-12-12T01:47:31.233Z,101123.34
2022-12-12T01:52:46.502Z,101126.13
2022-12-12T01:57:52.077Z,101129.84
2022-12-12T02:02:55.854Z,101139.84
2022-12-12T02:08:01.095Z,101134.19
2022-12-12T02:13:07.304Z,101142.03
2022-12-12T02:18:28.118Z,101136.88
2022-12-12T02:23:38.280Z,101131.69
2022-12-12T02:29:00.030Z,101137.91
2022-12-12T02:34:06.088Z,101137.06
2022-12-12T02:39:26.284Z,101133.63
2022-12-12T02:44:48.442Z,101134.66
2022-12-12T02:49:57.140Z,101127.38
2022-12-12T02:54:58.605Z,101128.03
2022-12-12T03:00:01.924Z,101139.94
2022-12-12T03:05:58.564Z,101141.66
2022-12-12T03:11:06.059Z,101142.50
2022-12-12T03:16:26.457Z,101145.09
2022-12-12T03:21:50.497Z,101148.34
2022-12-12T03:27:17.578Z,101139.31
2022-12-12T03:32:24.558Z,101146.44
2022-12-12T03:37:32.062Z,101152.75
2022-12-12T03:42:59.555Z,101133.50
2022-12-12T03:48:27.609Z,101152.16
2022-12-12T03:53:48.833Z,101155.63
2022-12-12T03:59:03.625Z,101152.81
2022-12-12T04:04:21.600Z,101130.94
2022-12-12T04:09:42.583Z,101137.84
2022-12-12T04:15:11.499Z,101154.53
2022-12-12T04:20:42.862Z,101157.59
2022-12-12T04:26:34.595Z,101169.88
2022-12-12T04:31:46.824Z,101153.66
2022-12-12T04:36:50.133Z,101161.81
2022-12-12T04:41:54.875Z,101153.84
2022-12-12T04:46:58.144Z,101160.28
2022-12-12T04:52:05.454Z,101162.13
2022-12-12T04:57:10.352Z,101170.84
2022-12-12T05:02:24.742Z,101167.34
2022-12-12T05:07:39.698Z,101169.41
2022-12-12T05:12:49.601Z,101161.03
2022-12-12T05:18:03.246Z,101159.81
2022-12-12T05:23:05.294Z,101155.72
2022-12-12T05:28:06.876Z,101164.75
2022-12-12T05:33:08.431Z,101158.16
2022-12-12T05:38:09.955Z,101156.94
2022-12-12T05:43:11.460Z,101165.59
2022-12-12T05:48:12.955Z,101157.03
2022-12-12T05:53:14.525Z,101159.34
2022-12-12T05:58:15.998Z,101172.38
2022-12-12T06:03:18.997Z,101155.59
2022-12-12T06:08:24.858Z,101171.91
2022-12-12T06:13:26.773Z,101184.94
2022-12-12T06:18:28.403Z,101176.28
2022-12-12T06:23:29.969Z,101169.00
2022-12-12T06:28:31.772Z,101190.47
2022-12-12T06:33:35.642Z,101189.16
2022-12-12T06:38:37.785Z,101195.97
2022-12-12T06:43:40.064Z,101194.25
2022-12-12T06:48:41.718Z,101193.97
2022-12-12T06:53:43.233Z,101201.34
2022-12-12T06:58:45.200Z,101198.56
2022-12-12T07:03:47.497Z,101199.41
2022-12-12T07:08:49.963Z,101215.34
2022-12-12T07:13:52.647Z,101216.03
2022-12-12T07:18:54.180Z,101216.31
2022-12-12T07:23:58.722Z,101214.78
2022-12-12T07:29:03.582Z,101219.88
2022-12-12T07:34:05.071Z,101225.94
2022-12-12T07:39:06.558Z,101234.16
2022-12-12T07:44:08.362Z,101234.16
2022-12-12T07:49:10.118Z,101246.63
2022-12-12T07:54:11.716Z,101241.06
2022-12-12T07:59:13.725Z,101240.94
2022-12-12T08:04:15.217Z,101254.75
2022-12-12T08:09:17.804Z,101246.59
2022-12-12T08:14:19.414Z,101259.22
2022-12-12T08:19:20.959Z,101256.56
2022-12-12T08:24:23.512Z,101268.78
2022-12-12T08:29:25.096Z,101265.50
2022-12-12T08:34:26.680Z,101273.06
2022-12-12T08:39:28.377Z,101270.63
2022-12-12T08:44:30.117Z,101269.91
2022-12-12T08:49:32.824Z,101280.31
2022-12-12T08:54:34.973Z,101270.56
2022-12-12T08:59:36.582Z,101257.44
2022-12-12T09:04:38.165Z,101281.75
2022-12-12T09:09:40.206Z,101288.00
2022-12-12T09:14:41.907Z,101279.69
2022-12-12T09:19:43.497Z,101275.00
2022-12-12T09:24:44.994Z,101265.63
2022-12-12T09:29:46.478Z,101287.50
2022-12-12T09:34:48.739Z,101291.56
2022-12-12T09:39:52.539Z,101280.41
2022-12-12T09:44:59.077Z,101293.34
2022-12-12T09:50:12.082Z,101285.97
2022-12-12T09:55:41.842Z,101297.66
2022-12-12T10:00:49.117Z,101299.13
2022-12-12T10:11:50.943Z,101280.03
2022-12-12T10:16:57.751Z,101286.19
2022-12-12T10:22:14.997Z,101283.22
2022-12-12T10:27:16.938Z,101285.28
2022-12-12T10:32:32.927Z,101278.28
2022-12-12T10:37:49.682Z,101276.03
2022-12-12T10:43:09.952Z,101270.38
2022-12-12T10:48:11.840Z,101261.84
2022-12-12T10:53:13.745Z,101261.00
2022-12-12T10:58:17.218Z,101262.63
2022-12-12T11:03:29.142Z,101264.53
2022-12-12T11:08:34.845Z,101271.75
2022-12-12T11:13:45.997Z,101255.22
2022-12-12T11:19:23.207Z,101255.38
2022-12-12T11:24:31.529Z,101256.53
2022-12-12T11:29:49.207Z,101250.13
2022-12-12T11:34:55.637Z,101237.81
2022-12-12T11:39:57.677Z,101235.75
2022-12-12T11:45:04.941Z,101243.06
2022-12-12T11:50:25.313Z,101231.34
2022-12-12T11:55:59.650Z,101234.25
2022-12-12T12:01:17.605Z,101231.06
2022-12-12T12:06:33.102Z,101230.56
2022-12-12T12:11:59.175Z,101235.03
2022-12-12T12:17:36.911Z,101230.66
2022-12-12T12:23:15.507Z,101232.88
2022-12-12T12:29:04.465Z,101234.84
2022-12-12T12:34:36.785Z,101247.38
2022-12-12T12:40:00.407Z,101246.22
2022-12-12T12:45:14.223Z,101237.72
2022-12-12T12:50:23.087Z,101240.78
2022-12-12T12:55:32.027Z,101236.84
2022-12-12T13:00:35.716Z,101243.38
2022-12-12T13:05:51.242Z,101239.13
2022-12-12T13:10:57.994Z,101243.75
2022-12-12T13:16:13.902Z,101239.63
2022-12-12T13:21:34.921Z,101241.47
2022-12-12T13:26:59.067Z,101234.63
2022-12-12T13:32:37.518Z,101236.94
2022-12-12T13:37:48.554Z,101235.50
2022-12-12T13:42:54.725Z,101230.66
2022-12-12T13:47:56.323Z,101237.56
2022-12-12T13:53:06.949Z,101241.34
2022-12-12T13:58:33.987Z,101230.84
2022-12-12T14:03:37.099Z,101234.41
2022-12-12T14:08:48.499Z,101235.97
2022-12-12T14:13:50.975Z,101244.44
2022-12-12T14:18:52.546Z,101248.22
2022-12-12T14:23:54.124Z,101235.59
2022-12-12T14:29:17.268Z,101237.84
2022-12-12T14:34:26.485Z,101250.78
2022-12-12T14:39:52.817Z,101255.28
2022-12-12T14:44:54.451Z,101232.94
2022-12-12T14:50:17.132Z,101244.91
2022-12-12T14:55:19.214Z,101248.44
2022-12-12T15:00:21.152Z,101254.44
2022-12-12T15:05:22.720Z,101245.31
2022-12-12T15:10:29.402Z,101249.53
2022-12-12T15:15:33.616Z,101245.34
2022-12-12T15:20:35.545Z,101261.03
2022-12-12T15:25:55.649Z,101256.56
2022-12-12T15:30:57.340Z,101262.31
2022-12-12T15:36:10.498Z,101276.78
2022-12-12T15:41:13.995Z,101286.63
2022-12-12T15:46:16.859Z,101284.03
2022-12-12T15:51:24.597Z,101279.13
2022-12-12T15:56:31.410Z,101282.06
2022-12-12T16:01:33.112Z,101266.41
2022-12-12T16:06:37.689Z,101279.19
2022-12-12T16:12:11.672Z,101277.13
2022-12-12T16:17:24.821Z,101283.00
2022-12-12T16:22:39.970Z,101293.38
2022-12-12T16:27:41.684Z,101282.81
2022-12-12T16:32:43.546Z,101283.91
2022-12-12T16:37:45.844Z,101280.22
2022-12-12T16:43:09.303Z,101280.06
2022-12-12T16:48:20.972Z,101269.16
2022-12-12T16:53:22.592Z,101254.16
2022-12-12T16:58:24.466Z,101278.31
2022-12-12T17:03:26.184Z,101267.16
2022-12-12T17:08:28.110Z,101271.34
2022-12-12T17:13:29.759Z,101268.56
2022-12-12T17:18:31.697Z,101266.38
2022-12-12T17:23:34.224Z,101276.81
2022-12-12T17:28:35.803Z,101271.69
2022-12-12T17:33:49.488Z,101277.16
2022-12-12T17:38:51.853Z,101278.72
2022-12-12T17:43:55.902Z,101275.00
2022-12-12T17:48:58.579Z,101281.84
2022-12-12T17:54:00.225Z,101284.06
2022-12-12T17:59:05.907Z,101276.19
2022-12-12T18:04:08.894Z,101271.00
2022-12-12T18:11:26.688Z,101270.59
2022-12-12T18:16:32.143Z,101281.78
2022-12-12T18:21:59.919Z,101284.88
2022-12-12T18:26:58.273Z,101282.34
2022-12-12T18:32:00.021Z,101274.97
2022-12-12T18:37:01.543Z,101275.03
2022-12-12T18:42:03.161Z,101271.19
2022-12-12T18:47:04.637Z,101280.56
2022-12-12T18:52:06.107Z,101289.38
2022-12-12T18:57:07.925Z,101287.72
2022-12-12T19:02:13.469Z,101279.69
2022-12-12T19:07:15.015Z,101269.34
2022-12-12T19:12:17.530Z,101280.19
2022-12-12T19:17:25.267Z,101274.81
2022-12-12T19:22:57.733Z,101275.09
2022-12-12T19:27:49.409Z,101286.63
2022-12-12T19:32:50.932Z,101281.56
2022-12-12T19:37:52.458Z,101287.50
2022-12-12T19:42:53.974Z,101298.88
2022-12-12T19:47:55.677Z,101301.50
2022-12-12T19:52:58.269Z,101295.97
2022-12-12T19:58:00.490Z,101304.59
2022-12-12T20:03:02.009Z,101303.50
2022-12-12T20:08:03.614Z,101300.63
2022-12-12T20:13:05.176Z,101296.88
2022-12-12T20:18:08.652Z,101299.13
2022-12-12T20:23:12.147Z,101296.25
2022-12-12T20:28:13.632Z,101299.84
2022-12-12T20:33:15.114Z,101298.13
2022-12-12T20:38:16.717Z,101300.63
2022-12-12T20:43:18.361Z,101302.25
2022-12-12T20:48:20.488Z,101312.28
2022-12-12T20:53:21.983Z,101317.69
2022-12-12T20:58:23.512Z,101320.53
2022-12-12T21:03:25.379Z,101317.19
2022-12-12T21:08:27.220Z,101315.19
2022-12-12T21:13:28.808Z,101314.47
2022-12-12T21:18:31.756Z,101319.06
2022-12-12T21:23:33.346Z,101323.84
2022-12-12T21:28:35.343Z,101306.31
2022-12-12T21:33:38.162Z,101298.53
2022-12-12T21:38:40.210Z,101299.59
2022-12-12T21:43:42.232Z,101291.16
2022-12-12T21:48:44.606Z,101294.03
2022-12-12T21:53:46.135Z,101297.97
2022-12-12T21:58:47.620Z,101296.16
2022-12-12T22:03:49.142Z,101293.19
2022-12-12T22:08:51.298Z,101291.72
2022-12-12T22:13:52.796Z,101289.88
2022-12-12T22:18:54.367Z,101292.44
2022-12-12T22:23:56.450Z,101302.44
2022-12-12T22:29:00.615Z,101294.97
2022-12-12T22:34:05.225Z,101298.59
2022-12-12T22:39:11.772Z,101301.75
2022-12-12T22:44:16.044Z,101294.63
2022-12-12T22:49:20.517Z,101303.66
2022-12-12T22:54:22.111Z,101307.41
2022-12-12T22:59:23.616Z,101315.63
2022-12-12T23:04:25.151Z,101303.56
2022-12-12T23:09:26.973Z,101309.56
2022-12-12T23:14:28.511Z,101297.88
2022-12-12T23:19:30.085Z,101306.69
2022-12-12T23:24:31.792Z,101292.13
2022-12-12T23:29:33.365Z,101290.41
2022-12-12T23:34:34.968Z,101287.56
2022-12-12T23:39:36.429Z,101280.63
2022-12-12T23:44:37.945Z,101275.97
2022-12-12T23:49:39.420Z,101280.41
2022-12-12T23:54:40.974Z,101284.34
2022-12-12T23:59:42.509Z,101283.63
